Time;durP1;ratioP1;P1;durP2;ratioP2;P2;SDS_P1;SDS_P2;PMS_P1;PMS_P2;Temp;Humidity;BMP_temperature;BMP_pressure;BME280_temperature;BME280_humidity;BME280_pressure;Samples;Min_cycle;Max_cycle;Signal;HPM_P1;HPM_P2
2021/12/13 00:00:27;;;;;;;28.10;15.40;;;21.90;55.90;;;;;;214397;1317;24270;-51
2021/12/13 00:05:47;;;;;;;22.20;13.80;;;21.80;55.90;;;;;;214335;1316;25616;-52
2021/12/13 00:11:16;;;;;;;23.10;14.50;;;22.00;55.40;;;;;;214216;1313;23246;-53
2021/12/13 00:16:26;;;;;;;23.80;15.00;;;22.40;54.30;;;;;;214350;1315;22625;-52
2021/12/13 00:21:41;;;;;;;23.10;14.80;;;22.70;54.20;;;;;;214392;1315;25252;-54
2021/12/13 00:26:48;;;;;;;27.70;17.10;;;23.10;52.80;;;;;;214373;1316;22850;-53
2021/12/13 00:32:19;;;;;;;23.40;16.30;;;23.30;52.20;;;;;;214345;1316;22646;-52
2021/12/13 00:37:33;;;;;;;26.10;17.10;;;23.30;52.00;;;;;;214407;1315;25595;-52
2021/12/13 00:42:51;;;;;;;27.90;17.30;;;23.30;51.90;;;;;;214503;1315;24426;-52
2021/12/13 00:48:02;;;;;;;28.00;17.00;;;23.30;51.50;;;;;;214355;1315;23905;-51
2021/12/13 00:53:06;;;;;;;26.40;17.30;;;23.30;51.30;;;;;;214425;1315;22578;-56
2021/12/13 00:58:23;;;;;;;27.60;17.50;;;23.40;51.20;;;;;;214430;1315;22590;-51
2021/12/13 01:03:40;;;;;;;27.90;18.20;;;23.40;51.00;;;;;;214309;1314;153370;-54
2021/12/13 01:09:22;;;;;;;28.80;18.00;;;23.40;51.30;;;;;;214388;1314;22607;-52
2021/12/13 01:14:28;;;;;;;27.30;18.00;;;23.40;51.00;;;;;;214457;1315;22567;-52
2021/12/13 01:19:52;;;;;;;28.30;19.20;;;23.50;50.60;;;;;;214384;1315;26526;-51
2021/12/13 01:30:09;;;;;;;26.20;17.80;;;23.40;50.40;;;;;;214481;1315;22598;-52
2021/12/13 01:35:17;;;;;;;27.60;18.20;;;23.40;50.30;;;;;;214429;1315;22656;-52
2021/12/13 01:40:26;;;;;;;27.20;18.50;;;23.40;50.20;;;;;;214609;1315;26615;-55
2021/12/13 01:45:36;;;;;;;28.70;18.70;;;23.50;50.70;;;;;;214480;1314;22643;-52
2021/12/13 01:50:48;;;;;;;27.70;18.00;;;23.50;49.80;;;;;;214535;1315;24290;-51
2021/12/13 01:55:58;;;;;;;26.60;18.80;;;23.50;49.90;;;;;;213991;1316;24407;-52
2021/12/13 02:01:16;;;;;;;28.50;18.50;;;23.60;49.50;;;;;;214125;1315;24333;-52
2021/12/13 02:06:38;;;;;;;28.80;18.40;;;23.60;49.30;;;;;;214442;1315;25580;-52
2021/12/13 02:11:54;;;;;;;27.80;19.30;;;23.70;49.20;;;;;;214323;1310;25553;-54
2021/12/13 02:17:12;;;;;;;28.60;19.30;;;23.70;49.10;;;;;;214444;1315;23100;-53
2021/12/13 02:22:37;;;;;;;30.40;18.60;;;23.70;49.10;;;;;;214544;1316;25506;-55
2021/12/13 02:27:48;;;;;;;28.50;17.50;;;23.60;49.10;;;;;;214381;1315;25534;-52
2021/12/13 02:32:52;;;;;;;25.10;17.00;;;23.60;49.10;;;;;;214625;1315;22713;-54
2021/12/13 02:37:58;;;;;;;30.10;18.90;;;23.60;49.10;;;;;;214438;1315;22558;-56
2021/12/13 02:43:05;;;;;;;26.90;18.10;;;23.60;49.10;;;;;;214404;1315;22557;-52
2021/12/13 02:48:20;;;;;;;27.70;19.40;;;23.60;49.10;;;;;;214439;1315;22647;-53
2021/12/13 02:53:32;;;;;;;28.00;19.70;;;23.60;49.00;;;;;;214416;1315;25408;-54
2021/12/13 02:58:38;;;;;;;27.40;18.00;;;23.60;49.00;;;;;;214425;1316;22643;-52
2021/12/13 03:03:45;;;;;;;27.20;18.00;;;23.60;49.30;;;;;;214430;1315;22587;-56
2021/12/13 03:08:59;;;;;;;27.80;18.40;;;23.60;48.90;;;;;;214402;1315;22625;-55
2021/12/13 03:14:11;;;;;;;27.30;18.60;;;23.60;48.90;;;;;;214472;1315;24322;-55
2021/12/13 03:19:37;;;;;;;26.20;17.50;;;23.70;48.70;;;;;;214348;1315;25509;-55
2021/12/13 03:25:02;;;;;;;27.50;18.70;;;23.60;48.70;;;;;;214286;1309;25281;-51
2021/12/13 03:30:12;;;;;;;26.80;17.90;;;23.80;48.40;;;;;;214412;1315;25428;-51
2021/12/13 03:35:21;;;;;;;25.00;18.30;;;23.80;48.60;;;;;;214424;1317;22562;-52
2021/12/13 03:40:27;;;;;;;24.40;17.30;;;23.80;48.50;;;;;;214422;1315;22680;-50
2021/12/13 03:45:40;;;;;;;25.40;17.80;;;23.80;48.40;;;;;;214613;1315;22595;-52
2021/12/13 03:50:49;;;;;;;28.00;18.90;;;23.70;48.40;;;;;;214449;1315;25477;-51
2021/12/13 03:56:02;;;;;;;27.20;18.00;;;23.70;48.40;;;;;;214609;1315;22694;-52
2021/12/13 04:01:30;;;;;;;26.60;18.20;;;23.70;48.50;;;;;;214407;1314;24589;-52
2021/12/13 04:06:50;;;;;;;26.40;17.60;;;23.70;48.40;;;;;;214392;1314;22776;-52
2021/12/13 04:11:56;;;;;;;26.40;17.90;;;23.70;48.70;;;;;;214008;1317;24005;-51
2021/12/13 04:22:46;;;;;;;23.70;16.40;;;23.70;48.80;;;;;;214340;1315;22580;-53
2021/12/13 04:28:05;;;;;;;24.60;17.10;;;23.60;48.40;;;;;;214410;1315;25572;-53
2021/12/13 04:33:31;;;;;;;27.70;18.60;;;23.60;48.30;;;;;;214419;1315;22568;-55
2021/12/13 04:38:50;;;;;;;28.30;18.00;;;23.60;48.40;;;;;;214649;1315;25535;-52
2021/12/13 04:44:00;;;;;;;25.20;17.30;;;23.60;48.20;;;;;;214422;1315;22713;-51
2021/12/13 04:49:11;;;;;;;24.30;17.20;;;23.70;48.10;;;;;;214398;1315;24274;-52
2021/12/13 04:54:16;;;;;;;24.90;18.00;;;23.80;47.90;;;;;;214445;1315;22604;-51
2021/12/13 04:59:20;;;;;;;26.80;18.80;;;23.80;47.80;;;;;;214449;1315;24404;-55
2021/12/13 05:04:27;;;;;;;27.00;18.00;;;23.80;47.80;;;;;;214467;1315;24582;-52
2021/12/13 05:09:33;;;;;;;27.60;18.20;;;23.80;47.90;;;;;;214480;1316;22652;-53
2021/12/13 05:15:03;;;;;;;26.50;18.10;;;23.80;48.00;;;;;;214460;1316;22590;-55
2021/12/13 05:20:16;;;;;;;25.60;17.80;;;23.70;47.90;;;;;;214350;1315;25253;-50
2021/12/13 05:25:31;;;;;;;26.20;17.90;;;23.70;48.00;;;;;;214384;1316;22626;-53
2021/12/13 05:30:41;;;;;;;25.80;18.30;;;23.70;48.20;;;;;;214514;1314;22638;-53
2021/12/13 05:35:52;;;;;;;26.60;18.50;;;23.70;47.90;;;;;;214407;1315;25538;-51
2021/12/13 05:40:59;;;;;;;25.60;16.40;;;23.70;47.90;;;;;;214471;1313;22577;-53
2021/12/13 05:46:15;;;;;;;23.00;16.60;;;23.70;47.90;;;;;;214449;1313;22581;-52
2021/12/13 05:51:34;;;;;;;26.60;17.50;;;23.70;47.90;;;;;;214598;1315;22558;-52
2021/12/13 05:56:49;;;;;;;25.10;16.90;;;23.70;47.90;;;;;;214487;1315;22660;-52
2021/12/13 06:02:12;;;;;;;24.50;18.20;;;23.60;48.00;;;;;;214256;1309;22599;-54
2021/12/13 06:07:28;;;;;;;25.00;18.00;;;23.60;48.10;;;;;;214387;1317;25441;-53
2021/12/13 06:12:46;;;;;;;25.60;17.70;;;23.60;48.50;;;;;;214293;1315;24248;-55
2021/12/13 06:18:11;;;;;;;24.70;17.70;;;23.80;47.90;;;;;;214379;1315;22568;-51
2021/12/13 06:23:23;;;;;;;25.80;18.00;;;23.80;47.60;;;;;;214369;1309;22839;-52
2021/12/13 06:28:31;;;;;;;24.90;17.70;;;23.80;47.40;;;;;;214614;1316;23200;-55
2021/12/13 06:33:59;;;;;;;26.10;17.20;;;23.80;47.60;;;;;;214337;1309;25400;-56
2021/12/13 06:39:17;;;;;;;28.70;17.90;;;23.80;47.20;;;;;;214332;1315;22601;-55
2021/12/13 06:44:40;;;;;;;25.60;16.10;;;23.80;47.70;;;;;;214531;1315;22750;-55
2021/12/13 06:49:52;;;;;;;28.40;17.50;;;23.80;48.10;;;;;;214319;1315;22597;-53
2021/12/13 06:55:08;;;;;;;26.40;17.10;;;23.80;48.40;;;;;;214589;1316;22559;-51
2021/12/13 07:00:14;;;;;;;29.30;16.70;;;23.90;48.50;;;;;;214582;1317;22631;-49
2021/12/13 07:05:23;;;;;;;27.40;17.40;;;23.90;48.60;;;;;;214164;1309;24302;-55
2021/12/13 07:10:45;;;;;;;24.40;14.90;;;23.90;48.60;;;;;;214286;1315;22617;-48
2021/12/13 07:15:57;;;;;;;26.20;16.00;;;23.90;49.00;;;;;;214295;1313;23978;-54
2021/12/13 07:21:13;;;;;;;28.10;16.20;;;23.90;49.10;;;;;;214553;1317;22682;-55
2021/12/13 07:26:44;;;;;;;31.50;16.00;;;23.90;49.40;;;;;;214125;1310;22568;-53
2021/12/13 07:32:05;;;;;;;30.90;16.30;;;23.90;49.30;;;;;;214137;1315;24248;-52
2021/12/13 07:37:09;;;;;;;27.40;15.90;;;23.90;49.60;;;;;;214048;1314;24420;-50
2021/12/13 07:42:14;;;;;;;30.00;17.10;;;23.80;49.50;;;;;;214199;1312;24316;-52
2021/12/13 07:47:23;;;;;;;29.10;18.60;;;23.60;49.90;;;;;;214503;1312;24244;-51
2021/12/13 07:52:30;;;;;;;30.20;18.20;;;23.50;49.00;;;;;;214481;1313;25637;-51
2021/12/13 07:57:47;;;;;;;30.20;17.90;;;23.30;49.90;;;;;;214403;1309;24427;-52
2021/12/13 08:03:16;;;;;;;30.70;18.70;;;23.10;50.10;;;;;;214418;1310;25491;-53
2021/12/13 08:08:32;;;;;;;33.50;17.60;;;23.00;50.50;;;;;;214265;1315;25576;-53
2021/12/13 08:13:58;;;;;;;35.40;19.80;;;22.80;50.90;;;;;;214313;1315;22569;-52
2021/12/13 08:19:27;;;;;;;32.10;17.50;;;22.80;50.50;;;;;;214246;1313;24764;-52
2021/12/13 08:24:38;;;;;;;39.90;20.50;;;22.60;51.00;;;;;;214216;1310;22742;-53
2021/12/13 08:29:43;;;;;;;33.10;19.80;;;22.60;51.10;;;;;;214169;1310;22586;-54
2021/12/13 08:35:05;;;;;;;33.00;19.20;;;22.60;51.20;;;;;;214299;1310;22588;-56
2021/12/13 08:40:18;;;;;;;40.30;19.40;;;22.50;51.30;;;;;;214077;1319;22702;-51
2021/12/13 08:45:39;;;;;;;34.00;19.70;;;22.40;51.40;;;;;;214343;1316;25425;-55
2021/12/13 08:50:50;;;;;;;37.50;19.60;;;22.40;52.00;;;;;;214328;1316;25435;-54
2021/12/13 08:56:10;;;;;;;39.70;19.90;;;22.40;51.80;;;;;;214338;1315;24530;-52
2021/12/13 09:01:23;;;;;;;32.30;19.10;;;22.20;52.10;;;;;;214500;1317;25326;-54
2021/12/13 09:06:37;;;;;;;32.80;18.50;;;22.30;51.90;;;;;;214309;1314;327609;-54
2021/12/13 09:12:11;;;;;;;38.70;19.90;;;22.30;52.00;;;;;;214598;1316;22593;-56
2021/12/13 09:17:38;;;;;;;33.70;18.80;;;22.70;50.90;;;;;;214518;1316;26606;-55
2021/12/13 09:22:53;;;;;;;35.20;19.30;;;23.10;49.90;;;;;;214444;1316;22567;-54
2021/12/13 09:28:01;;;;;;;40.10;19.10;;;23.50;50.20;;;;;;214506;1316;25499;-54
2021/12/13 09:33:33;;;;;;;34.20;19.60;;;23.50;50.50;;;;;;214287;1317;22558;-51
2021/12/13 09:38:53;;;;;;;33.10;19.00;;;23.50;50.50;;;;;;220034;1316;22559;-50
2021/12/13 09:44:06;;;;;;;43.60;20.80;;;23.50;50.40;;;;;;214310;1309;24245;-53
2021/12/13 09:49:28;;;;;;;35.10;20.10;;;23.40;51.40;;;;;;214098;1314;22572;-53
2021/12/13 09:54:51;;;;;;;33.60;19.60;;;23.50;51.40;;;;;;214126;1314;22604;-52
2021/12/13 09:59:58;;;;;;;33.90;19.70;;;23.50;50.90;;;;;;214053;1314;25322;-56
2021/12/13 10:05:12;;;;;;;33.90;20.10;;;23.50;50.60;;;;;;214048;1316;22809;-52
2021/12/13 10:10:22;;;;;;;33.80;20.30;;;23.60;50.40;;;;;;214266;1314;22795;-53
2021/12/13 10:15:34;;;;;;;34.70;19.40;;;23.60;50.30;;;;;;214027;1314;22651;-55
2021/12/13 10:20:44;;;;;;;41.30;20.30;;;23.60;50.20;;;;;;214249;1309;22581;-53
2021/12/13 10:25:55;;;;;;;37.70;19.40;;;23.60;50.10;;;;;;214190;1312;24934;-53
2021/12/13 10:31:24;;;;;;;;;;;23.60;50.00;;;;;;214005;1312;22571;-54
2021/12/13 10:36:39;;;;;;;36.30;19.60;;;23.60;50.10;;;;;;214262;1310;22621;-51
2021/12/13 10:41:57;;;;;;;36.20;19.50;;;23.60;50.30;;;;;;214078;1310;24327;-52
2021/12/13 10:47:12;;;;;;;28.40;18.60;;;23.60;50.00;;;;;;214051;1309;24318;-52
2021/12/13 10:52:30;;;;;;;31.30;19.10;;;23.60;50.60;;;;;;214198;1315;22662;-53
2021/12/13 10:57:48;;;;;;;32.00;19.40;;;23.60;49.80;;;;;;213957;1314;22583;-51
2021/12/13 11:02:57;;;;;;;31.70;18.70;;;23.80;49.50;;;;;;214237;1309;22882;-54
2021/12/13 11:08:05;;;;;;;34.20;20.10;;;23.90;49.40;;;;;;214301;1309;23848;-54
2021/12/13 11:13:09;;;;;;;31.40;19.60;;;23.90;48.50;;;;;;214121;1310;25351;-53
2021/12/13 11:18:26;;;;;;;30.80;18.90;;;23.80;49.00;;;;;;214235;1309;25548;-56
2021/12/13 11:23:33;;;;;;;31.60;19.10;;;23.90;49.30;;;;;;214302;1315;25399;-55
2021/12/13 11:28:38;;;;;;;30.20;18.60;;;23.90;50.40;;;;;;214278;1314;22652;-51
2021/12/13 11:33:44;;;;;;;35.00;19.70;;;23.90;51.10;;;;;;213741;1309;25478;-53
2021/12/13 11:39:23;;;;;;;31.40;18.30;;;23.80;51.90;;;;;;214115;1315;25462;-55
2021/12/13 11:44:50;;;;;;;28.70;18.70;;;23.90;51.60;;;;;;213104;1316;22752;-58
2021/12/13 11:50:34;;;;;;;30.40;19.10;;;23.90;51.20;;;;;;214018;1309;25335;-53
2021/12/13 11:55:56;;;;;;;27.70;18.00;;;23.80;51.20;;;;;;214090;1313;24248;-51
2021/12/13 12:01:21;;;;;;;28.40;17.70;;;23.80;51.30;;;;;;214193;1309;22607;-55
2021/12/13 12:07:21;;;;;;;33.30;19.30;;;23.60;51.30;;;;;;214253;1309;22565;-54
2021/12/13 12:13:02;;;;;;;26.40;17.70;;;23.50;51.50;;;;;;214050;1310;22566;-54
2021/12/13 12:18:12;;;;;;;26.90;17.40;;;23.40;51.80;;;;;;214500;1316;25639;-54
2021/12/13 12:23:32;;;;;;;27.60;17.60;;;23.30;51.70;;;;;;213872;1309;22603;-54
2021/12/13 12:28:36;;;;;;;27.70;17.00;;;23.20;51.70;;;;;;214029;1314;24322;-52
2021/12/13 12:33:48;;;;;;;28.50;17.90;;;23.10;51.90;;;;;;214004;1309;24329;-52
2021/12/13 12:39:34;;;;;;;26.60;18.10;;;23.00;52.20;;;;;;214382;1316;24278;-54
2021/12/13 12:44:56;;;;;;;25.70;17.20;;;22.90;52.40;;;;;;213739;1310;22744;-51
2021/12/13 12:50:14;;;;;;;;;;;22.80;52.90;;;;;;214173;1309;25409;-52
2021/12/13 12:55:43;;;;;;;28.00;17.60;;;22.80;53.00;;;;;;213840;1309;22593;-52
2021/12/13 13:00:51;;;;;;;26.10;17.30;;;22.70;52.80;;;;;;214117;1310;22613;-51
2021/12/13 13:06:19;;;;;;;25.80;18.00;;;22.60;52.90;;;;;;214060;1313;22712;-53
2021/12/13 13:11:30;;;;;;;28.20;18.20;;;22.60;52.90;;;;;;214131;1314;24441;-53
2021/12/13 13:16:48;;;;;;;25.30;17.00;;;22.50;53.00;;;;;;213962;1309;26917;-55
2021/12/13 13:22:19;;;;;;;27.30;17.40;;;22.40;53.10;;;;;;214166;1309;24434;-51
2021/12/13 13:28:04;;;;;;;25.20;16.50;;;22.40;53.00;;;;;;214120;1309;22642;-55
2021/12/13 13:33:14;;;;;;;26.00;17.60;;;22.30;53.10;;;;;;214148;1315;22652;-54
2021/12/13 13:39:16;;;;;;;26.20;17.40;;;22.40;53.30;;;;;;214083;1309;22594;-51
2021/12/13 13:45:23;;;;;;;25.70;17.70;;;22.80;52.00;;;;;;214071;1310;25567;-54
2021/12/13 13:51:12;;;;;;;24.50;17.50;;;23.20;51.40;;;;;;214832;1317;22688;-53
2021/12/13 13:57:11;;;;;;;22.90;16.50;;;23.40;51.10;;;;;;214333;1316;24280;-54
2021/12/13 14:02:35;;;;;;;23.00;16.50;;;23.50;50.60;;;;;;213598;1309;25533;-55
2021/12/13 14:07:50;;;;;;;21.60;16.10;;;23.50;50.60;;;;;;214315;1309;22913;-55
2021/12/13 14:13:31;;;;;;;23.00;15.80;;;23.50;50.90;;;;;;214292;1316;25348;-55
2021/12/13 14:18:52;;;;;;;22.60;16.50;;;23.50;50.80;;;;;;214300;1316;24334;-52
2021/12/13 14:23:59;;;;;;;;;;;23.60;50.40;;;;;;214301;1316;23230;-54
2021/12/13 14:29:13;;;;;;;22.30;15.90;;;23.60;50.20;;;;;;213892;1309;25493;-55
2021/12/13 14:34:41;;;;;;;21.90;15.70;;;23.60;50.60;;;;;;213861;1309;24332;-53
2021/12/13 14:39:51;;;;;;;22.30;15.10;;;23.60;50.20;;;;;;214334;1315;22590;-52
2021/12/13 14:45:11;;;;;;;22.00;14.10;;;23.70;49.60;;;;;;214464;1316;24333;-54
2021/12/13 14:50:33;;;;;;;20.60;15.30;;;23.70;49.50;;;;;;214041;1309;22653;-52
2021/12/13 14:55:45;;;;;;;19.90;14.60;;;23.70;49.50;;;;;;214345;1310;24446;-53
2021/12/13 15:01:01;;;;;;;20.00;14.40;;;23.70;49.60;;;;;;213788;1309;22732;-52
2021/12/13 15:06:13;;;;;;;;;;;23.60;49.60;;;;;;214001;1309;25415;-54
2021/12/13 15:11:36;;;;;;;21.70;15.60;;;23.60;49.60;;;;;;215300;1309;25349;-55
2021/12/13 15:17:01;;;;;;;20.20;14.60;;;23.60;49.10;;;;;;214057;1314;22720;-54
2021/12/13 15:22:09;;;;;;;21.20;14.00;;;23.60;49.60;;;;;;214206;1310;22616;-55
2021/12/13 15:27:25;;;;;;;19.90;14.40;;;23.60;49.70;;;;;;213440;1312;24366;-54
2021/12/13 15:32:45;;;;;;;20.30;14.70;;;23.60;49.20;;;;;;213890;1309;22654;-54
2021/12/13 15:37:56;;;;;;;20.10;14.20;;;23.70;49.00;;;;;;213717;1309;22644;-52
2021/12/13 15:43:29;;;;;;;21.80;14.70;;;23.70;49.20;;;;;;213955;1309;22619;-52
2021/12/13 15:54:24;;;;;;;23.50;14.70;;;23.60;48.90;;;;;;213717;1309;22663;-53
2021/12/13 15:59:35;;;;;;;26.70;14.70;;;23.70;48.80;;;;;;213755;1309;25438;-56
2021/12/13 16:05:01;;;;;;;21.00;14.60;;;23.70;48.50;;;;;;213937;1309;25632;-55
2021/12/13 16:10:17;;;;;;;22.50;14.60;;;23.70;49.10;;;;;;213713;1309;25350;-56
2021/12/13 16:15:28;;;;;;;25.20;15.20;;;23.80;49.00;;;;;;213838;1309;22779;-54
2021/12/13 16:20:39;;;;;;;25.90;15.70;;;23.80;48.90;;;;;;213820;1309;22581;-55
2021/12/13 16:25:54;;;;;;;25.00;15.50;;;23.90;48.90;;;;;;213853;1311;25625;-54
2021/12/13 16:31:08;;;;;;;21.20;14.80;;;23.90;49.00;;;;;;214209;1309;22563;-54
2021/12/13 16:36:33;;;;;;;23.10;16.30;;;23.90;49.50;;;;;;214022;1309;24203;-56
2021/12/13 16:41:40;;;;;;;20.90;15.10;;;23.90;49.40;;;;;;213946;1309;22617;-51
2021/12/13 16:46:53;;;;;;;29.30;16.50;;;23.80;48.80;;;;;;213733;1309;24299;-55
2021/12/13 16:52:18;;;;;;;21.90;15.50;;;23.70;48.40;;;;;;213828;1309;22581;-52
2021/12/13 16:57:37;;;;;;;24.60;15.20;;;23.60;48.30;;;;;;213925;1309;22785;-53
2021/12/13 17:02:50;;;;;;;19.90;15.80;;;23.50;48.50;;;;;;213856;1308;192435;-54
2021/12/13 17:07:58;;;;;;;21.70;14.30;;;23.40;48.30;;;;;;213889;1309;24181;-53
2021/12/13 17:13:09;;;;;;;21.80;13.90;;;23.30;48.40;;;;;;214040;1309;22910;-51
2021/12/13 17:18:37;;;;;;;20.30;13.70;;;23.20;48.80;;;;;;214262;1309;25386;-55
2021/12/13 17:24:02;;;;;;;23.20;15.70;;;23.00;48.60;;;;;;214141;1309;22778;-55
2021/12/13 17:29:29;;;;;;;18.90;14.40;;;23.00;49.30;;;;;;214164;1309;22638;-55
2021/12/13 17:34:54;;;;;;;19.90;13.90;;;22.90;49.40;;;;;;214082;1309;22582;-52
2021/12/13 17:40:20;;;;;;;26.70;13.50;;;22.90;49.80;;;;;;214185;1309;24257;-53
2021/12/13 17:45:30;;;;;;;21.70;13.50;;;22.80;50.10;;;;;;213995;1309;22561;-51
2021/12/13 17:50:44;;;;;;;19.20;13.00;;;22.80;50.80;;;;;;214384;1309;25441;-51
2021/12/13 17:55:52;;;;;;;19.00;12.20;;;22.70;50.80;;;;;;214333;1309;22561;-51
2021/12/13 18:01:12;;;;;;;17.80;12.90;;;22.60;52.00;;;;;;214553;1309;22588;-53
2021/12/13 18:06:30;;;;;;;23.10;13.10;;;22.60;51.50;;;;;;214101;1310;22593;-51
2021/12/13 18:11:45;;;;;;;22.40;12.90;;;22.60;51.80;;;;;;214334;1309;22598;-54
2021/12/13 18:16:50;;;;;;;20.60;13.60;;;22.50;52.10;;;;;;213764;1309;22574;-54
2021/12/13 18:21:58;;;;;;;21.00;12.80;;;22.50;52.10;;;;;;214100;1309;24315;-54
2021/12/13 18:27:12;;;;;;;22.50;12.30;;;22.40;52.30;;;;;;214363;1309;22591;-55
2021/12/13 18:32:32;;;;;;;19.90;12.80;;;22.40;52.50;;;;;;214319;1309;22580;-54
2021/12/13 18:37:59;;;;;;;26.60;11.10;;;22.30;52.40;;;;;;213991;1309;22583;-53
2021/12/13 18:43:21;;;;;;;19.60;12.10;;;22.30;52.20;;;;;;213905;1309;22583;-53
2021/12/13 18:48:30;;;;;;;18.90;12.50;;;22.40;51.40;;;;;;213975;1309;22591;-51
2021/12/13 18:53:49;;;;;;;18.30;12.60;;;22.80;50.30;;;;;;214572;1309;24245;-51
2021/12/13 18:58:58;;;;;;;22.20;13.20;;;23.00;49.50;;;;;;214338;1315;25380;-51
2021/12/13 19:04:11;;;;;;;19.20;11.40;;;23.30;48.60;;;;;;214324;1309;22790;-55
2021/12/13 19:09:25;;;;;;;25.60;13.00;;;23.30;48.30;;;;;;214499;1315;22802;-55
2021/12/13 19:14:51;;;;;;;20.40;11.80;;;23.50;48.10;;;;;;214310;1312;22674;-54
2021/12/13 19:20:20;;;;;;;19.80;12.90;;;23.50;48.10;;;;;;214555;1308;26559;-57
2021/12/13 19:25:25;;;;;;;20.40;12.80;;;23.50;47.40;;;;;;214638;1309;22580;-55
2021/12/13 19:30:57;;;;;;;19.50;12.90;;;23.50;47.60;;;;;;214258;1309;22581;-53
2021/12/13 19:36:22;;;;;;;21.20;12.70;;;23.50;47.80;;;;;;214208;1314;22571;-56
2021/12/13 19:41:57;;;;;;;19.20;14.20;;;23.50;48.10;;;;;;214371;1309;25581;-52
2021/12/13 19:47:30;;;;;;;25.70;14.40;;;23.40;48.80;;;;;;214212;1310;22653;-51
2021/12/13 19:52:44;;;;;;;27.30;14.20;;;23.60;49.50;;;;;;214331;1312;25365;-56
2021/12/13 19:58:06;;;;;;;24.00;13.40;;;23.60;49.40;;;;;;214447;1303;24329;-55
2021/12/13 20:03:22;;;;;;;20.20;12.50;;;23.70;49.90;;;;;;214433;1314;24278;-54
2021/12/13 20:08:31;;;;;;;23.20;13.10;;;23.80;49.80;;;;;;214428;1315;25612;-53
2021/12/13 20:13:47;;;;;;;18.80;12.90;;;23.80;49.70;;;;;;214678;1313;22842;-51
2021/12/13 20:18:58;;;;;;;20.30;11.50;;;23.80;50.10;;;;;;214466;1309;22585;-52
2021/12/13 20:24:04;;;;;;;;;;;23.90;50.00;;;;;;214401;1309;22555;-51
2021/12/13 20:29:17;;;;;;;24.00;13.20;;;23.90;49.90;;;;;;214268;1309;22574;-51
2021/12/13 20:34:30;;;;;;;20.30;12.20;;;23.80;50.10;;;;;;214305;1309;22585;-53
2021/12/13 20:39:49;;;;;;;21.60;13.30;;;23.70;50.40;;;;;;214390;1309;22638;-52
2021/12/13 20:45:02;;;;;;;25.50;14.10;;;23.50;50.50;;;;;;214154;1309;25489;-54
2021/12/13 20:50:11;;;;;;;20.90;14.60;;;23.30;50.90;;;;;;214167;1309;24273;-52
2021/12/13 20:55:54;;;;;;;25.60;15.80;;;23.30;51.10;;;;;;214365;1309;22597;-53
2021/12/13 21:01:01;;;;;;;110.60;88.20;;;23.20;51.50;;;;;;213332;1309;22573;-52
2021/12/13 21:06:18;;;;;;;102.20;80.30;;;23.00;51.70;;;;;;215222;1309;22706;-54
2021/12/13 21:11:33;;;;;;;92.50;74.70;;;23.00;51.70;;;;;;214130;1309;23110;-51
2021/12/13 21:16:42;;;;;;;83.00;63.40;;;23.00;52.00;;;;;;214327;1309;26500;-54
2021/12/13 21:21:53;;;;;;;70.50;55.00;;;22.90;51.90;;;;;;214256;1309;24296;-53
2021/12/13 21:27:08;;;;;;;66.00;49.20;;;22.80;52.20;;;;;;214417;1309;22982;-52
2021/12/13 21:32:20;;;;;;;55.20;37.80;;;22.80;52.10;;;;;;214426;1316;23095;-55
2021/12/13 21:42:55;;;;;;;37.60;27.90;;;22.70;50.80;;;;;;214426;1316;22825;-52
2021/12/13 21:48:11;;;;;;;34.00;23.80;;;22.60;52.00;;;;;;214507;1314;24253;-52
2021/12/13 21:53:29;;;;;;;32.60;22.60;;;22.40;52.00;;;;;;214548;1316;25561;-51
2021/12/13 21:58:52;;;;;;;27.40;19.40;;;22.40;51.00;;;;;;214512;1313;22797;-52
2021/12/13 22:04:02;;;;;;;23.50;18.00;;;22.40;51.50;;;;;;214602;1309;22559;-55
2021/12/13 22:09:15;;;;;;;22.80;17.80;;;22.30;51.50;;;;;;214350;1309;22576;-53
2021/12/13 22:14:45;;;;;;;20.70;15.50;;;22.30;51.50;;;;;;213982;1312;23101;-52
2021/12/13 22:19:55;;;;;;;17.70;13.80;;;22.20;51.50;;;;;;214453;1309;25332;-55
2021/12/13 22:25:08;;;;;;;18.30;12.70;;;22.20;51.60;;;;;;214421;1309;22742;-51
2021/12/13 22:30:28;;;;;;;14.50;11.40;;;22.10;51.80;;;;;;214409;1316;22577;-52
2021/12/13 22:35:41;;;;;;;17.60;11.90;;;22.10;51.90;;;;;;214247;1309;25626;-49
2021/12/13 22:40:59;;;;;;;15.40;10.80;;;22.20;53.50;;;;;;214280;1309;22643;-51
2021/12/13 22:46:28;;;;;;;14.30;10.60;;;22.50;53.30;;;;;;214752;1309;23956;-52
2021/12/13 22:51:42;;;;;;;15.70;10.30;;;22.80;52.80;;;;;;214358;1309;25567;-54
2021/12/13 22:56:47;;;;;;;18.80;11.20;;;23.00;51.60;;;;;;214352;1309;22641;-54
2021/12/13 23:01:56;;;;;;;16.60;10.90;;;23.20;51.00;;;;;;214357;1317;24435;-51
2021/12/13 23:07:05;;;;;;;16.00;11.20;;;23.30;51.00;;;;;;214402;1317;22593;-51
2021/12/13 23:17:45;;;;;;;14.80;10.60;;;23.40;50.40;;;;;;214399;1314;24287;-52
2021/12/13 23:22:50;;;;;;;17.00;11.50;;;23.40;50.10;;;;;;214360;1318;25458;-53
2021/12/13 23:28:01;;;;;;;18.30;12.00;;;23.50;50.00;;;;;;214548;1315;22811;-54
2021/12/13 23:33:16;;;;;;;17.60;12.10;;;23.50;49.70;;;;;;214511;1315;25502;-52
2021/12/13 23:42:20;;;;;;;19.50;13.50;;;23.60;50.00;;;;;;214506;1315;24290;-51
2021/12/13 23:49:12;;;;;;;18.10;12.90;;;23.60;49.40;;;;;;214473;1315;24281;-53
2021/12/13 23:54:15;;;;;;;17.50;12.80;;;23.60;49.20;;;;;;214368;1315;22625;-54
2021/12/13 23:59:20;;;;;;;19.70;13.30;;;23.60;49.10;;;;;;214383;1315;22570;-54
